sensor_id;sensor_type;location;lat;lon;timestamp;P1;durP1;ratioP1;P2;durP2;ratioP2
3801;SDS011;1916;51.798;12.246;2023-04-25T00:00:57;6.73;;;4.60;;
3801;SDS011;1916;51.798;12.246;2023-04-25T00:02:59;9.30;;;5.70;;
3801;SDS011;1916;51.798;12.246;2023-04-25T00:05:01;7.20;;;5.20;;
3801;SDS011;1916;51.798;12.246;2023-04-25T00:07:06;9.63;;;5.20;;
3801;SDS011;1916;51.798;12.246;2023-04-25T00:09:09;8.43;;;5.90;;
3801;SDS011;1916;51.798;12.246;2023-04-25T00:11:12;7.83;;;4.53;;
3801;SDS011;1916;51.798;12.246;2023-04-25T00:13:14;9.90;;;6.20;;
3801;SDS011;1916;51.798;12.246;2023-04-25T00:15:19;7.47;;;5.27;;
3801;SDS011;1916;51.798;12.246;2023-04-25T00:17:21;5.97;;;5.47;;
3801;SDS011;1916;51.798;12.246;2023-04-25T00:19:23;7.40;;;5.23;;
3801;SDS011;1916;51.798;12.246;2023-04-25T00:21:25;5.80;;;5.10;;
3801;SDS011;1916;51.798;12.246;2023-04-25T00:23:27;8.87;;;6.00;;
3801;SDS011;1916;51.798;12.246;2023-04-25T00:25:30;5.93;;;5.23;;
3801;SDS011;1916;51.798;12.246;2023-04-25T00:27:32;10.60;;;5.50;;
3801;SDS011;1916;51.798;12.246;2023-04-25T00:29:34;11.83;;;6.03;;
3801;SDS011;1916;51.798;12.246;2023-04-25T00:31:36;7.27;;;5.60;;
3801;SDS011;1916;51.798;12.246;2023-04-25T00:33:38;8.00;;;5.90;;
3801;SDS011;1916;51.798;12.246;2023-04-25T00:35:40;6.63;;;5.70;;
3801;SDS011;1916;51.798;12.246;2023-04-25T00:37:43;8.10;;;6.30;;
3801;SDS011;1916;51.798;12.246;2023-04-25T00:39:45;7.47;;;5.73;;
3801;SDS011;1916;51.798;12.246;2023-04-25T00:41:47;14.07;;;5.70;;
3801;SDS011;1916;51.798;12.246;2023-04-25T00:43:50;9.20;;;5.70;;
3801;SDS011;1916;51.798;12.246;2023-04-25T00:45:53;8.13;;;5.93;;
3801;SDS011;1916;51.798;12.246;2023-04-25T00:47:55;7.00;;;5.80;;
3801;SDS011;1916;51.798;12.246;2023-04-25T00:49:58;6.37;;;5.77;;
3801;SDS011;1916;51.798;12.246;2023-04-25T00:52:00;7.87;;;5.53;;
3801;SDS011;1916;51.798;12.246;2023-04-25T00:54:02;13.90;;;5.70;;
3801;SDS011;1916;51.798;12.246;2023-04-25T00:56:05;7.20;;;5.43;;
3801;SDS011;1916;51.798;12.246;2023-04-25T00:58:07;10.60;;;6.30;;
3801;SDS011;1916;51.798;12.246;2023-04-25T01:00:10;7.70;;;6.40;;
3801;SDS011;1916;51.798;12.246;2023-04-25T01:02:12;8.20;;;6.03;;
3801;SDS011;1916;51.798;12.246;2023-04-25T01:04:15;9.37;;;7.00;;
3801;SDS011;1916;51.798;12.246;2023-04-25T01:06:18;7.80;;;6.17;;
3801;SDS011;1916;51.798;12.246;2023-04-25T01:08:21;10.30;;;5.93;;
3801;SDS011;1916;51.798;12.246;2023-04-25T01:10:27;8.30;;;5.80;;
3801;SDS011;1916;51.798;12.246;2023-04-25T01:12:29;8.27;;;6.10;;
3801;SDS011;1916;51.798;12.246;2023-04-25T01:14:31;8.27;;;6.50;;
3801;SDS011;1916;51.798;12.246;2023-04-25T01:16:33;7.10;;;5.53;;
3801;SDS011;1916;51.798;12.246;2023-04-25T01:18:36;6.37;;;5.77;;
3801;SDS011;1916;51.798;12.246;2023-04-25T01:20:40;7.70;;;6.10;;
3801;SDS011;1916;51.798;12.246;2023-04-25T01:22:43;11.03;;;5.27;;
3801;SDS011;1916;51.798;12.246;2023-04-25T01:24:45;14.53;;;5.50;;
3801;SDS011;1916;51.798;12.246;2023-04-25T01:26:48;7.70;;;5.60;;
3801;SDS011;1916;51.798;12.246;2023-04-25T01:28:57;5.77;;;5.20;;
3801;SDS011;1916;51.798;12.246;2023-04-25T01:31:00;9.57;;;5.90;;
3801;SDS011;1916;51.798;12.246;2023-04-25T01:33:03;9.10;;;5.10;;
3801;SDS011;1916;51.798;12.246;2023-04-25T01:35:07;8.50;;;6.00;;
3801;SDS011;1916;51.798;12.246;2023-04-25T01:37:11;7.93;;;5.93;;
3801;SDS011;1916;51.798;12.246;2023-04-25T01:39:13;8.07;;;5.80;;
3801;SDS011;1916;51.798;12.246;2023-04-25T01:41:15;7.67;;;5.43;;
3801;SDS011;1916;51.798;12.246;2023-04-25T01:43:19;7.60;;;5.93;;
3801;SDS011;1916;51.798;12.246;2023-04-25T01:45:21;7.10;;;6.10;;
3801;SDS011;1916;51.798;12.246;2023-04-25T01:47:25;8.10;;;6.00;;
3801;SDS011;1916;51.798;12.246;2023-04-25T01:49:29;9.40;;;5.97;;
3801;SDS011;1916;51.798;12.246;2023-04-25T01:51:32;6.90;;;5.53;;
3801;SDS011;1916;51.798;12.246;2023-04-25T01:53:35;8.50;;;6.07;;
3801;SDS011;1916;51.798;12.246;2023-04-25T01:55:38;7.03;;;6.00;;
3801;SDS011;1916;51.798;12.246;2023-04-25T01:57:44;8.10;;;6.50;;
3801;SDS011;1916;51.798;12.246;2023-04-25T01:59:46;6.73;;;5.30;;
3801;SDS011;1916;51.798;12.246;2023-04-25T02:02:11;9.33;;;5.70;;
3801;SDS011;1916;51.798;12.246;2023-04-25T02:04:14;8.90;;;6.20;;
3801;SDS011;1916;51.798;12.246;2023-04-25T02:06:18;7.17;;;5.40;;
3801;SDS011;1916;51.798;12.246;2023-04-25T02:08:21;7.57;;;6.67;;
3801;SDS011;1916;51.798;12.246;2023-04-25T02:10:23;8.77;;;6.07;;
3801;SDS011;1916;51.798;12.246;2023-04-25T02:12:36;9.10;;;6.00;;
3801;SDS011;1916;51.798;12.246;2023-04-25T02:14:56;12.00;;;6.23;;
3801;SDS011;1916;51.798;12.246;2023-04-25T02:17:06;10.80;;;6.60;;
3801;SDS011;1916;51.798;12.246;2023-04-25T02:19:09;9.70;;;6.17;;
3801;SDS011;1916;51.798;12.246;2023-04-25T02:21:11;8.23;;;6.40;;
3801;SDS011;1916;51.798;12.246;2023-04-25T02:23:14;7.70;;;5.97;;
3801;SDS011;1916;51.798;12.246;2023-04-25T02:25:17;8.03;;;6.60;;
3801;SDS011;1916;51.798;12.246;2023-04-25T02:27:21;8.93;;;6.57;;
3801;SDS011;1916;51.798;12.246;2023-04-25T02:29:23;8.10;;;6.40;;
3801;SDS011;1916;51.798;12.246;2023-04-25T02:31:25;8.33;;;5.90;;
3801;SDS011;1916;51.798;12.246;2023-04-25T02:33:28;8.33;;;5.63;;
3801;SDS011;1916;51.798;12.246;2023-04-25T02:35:32;8.43;;;6.07;;
3801;SDS011;1916;51.798;12.246;2023-04-25T02:37:34;6.33;;;5.50;;
3801;SDS011;1916;51.798;12.246;2023-04-25T02:39:37;9.53;;;6.57;;
3801;SDS011;1916;51.798;12.246;2023-04-25T02:41:39;14.80;;;6.63;;
3801;SDS011;1916;51.798;12.246;2023-04-25T02:43:41;7.70;;;6.00;;
3801;SDS011;1916;51.798;12.246;2023-04-25T02:45:43;8.90;;;5.87;;
3801;SDS011;1916;51.798;12.246;2023-04-25T02:47:46;8.63;;;6.00;;
3801;SDS011;1916;51.798;12.246;2023-04-25T02:49:48;7.97;;;6.93;;
3801;SDS011;1916;51.798;12.246;2023-04-25T02:51:50;9.43;;;5.90;;
3801;SDS011;1916;51.798;12.246;2023-04-25T02:53:52;10.60;;;5.80;;
3801;SDS011;1916;51.798;12.246;2023-04-25T02:55:54;7.60;;;5.97;;
3801;SDS011;1916;51.798;12.246;2023-04-25T02:57:59;13.20;;;6.27;;
3801;SDS011;1916;51.798;12.246;2023-04-25T03:00:12;7.57;;;6.00;;
3801;SDS011;1916;51.798;12.246;2023-04-25T03:02:15;8.60;;;5.03;;
3801;SDS011;1916;51.798;12.246;2023-04-25T03:04:17;10.53;;;6.33;;
3801;SDS011;1916;51.798;12.246;2023-04-25T03:06:21;6.40;;;5.70;;
3801;SDS011;1916;51.798;12.246;2023-04-25T03:08:23;9.77;;;6.13;;
3801;SDS011;1916;51.798;12.246;2023-04-25T03:10:27;6.00;;;5.40;;
3801;SDS011;1916;51.798;12.246;2023-04-25T03:12:33;8.30;;;6.13;;
3801;SDS011;1916;51.798;12.246;2023-04-25T03:14:36;7.20;;;5.60;;
3801;SDS011;1916;51.798;12.246;2023-04-25T03:16:38;10.57;;;6.40;;
3801;SDS011;1916;51.798;12.246;2023-04-25T03:18:41;9.90;;;5.50;;
3801;SDS011;1916;51.798;12.246;2023-04-25T03:20:43;11.50;;;5.70;;
3801;SDS011;1916;51.798;12.246;2023-04-25T03:22:45;6.10;;;5.50;;
3801;SDS011;1916;51.798;12.246;2023-04-25T03:24:47;12.63;;;6.03;;
3801;SDS011;1916;51.798;12.246;2023-04-25T03:26:49;10.70;;;5.30;;
3801;SDS011;1916;51.798;12.246;2023-04-25T03:28:51;8.80;;;5.80;;
3801;SDS011;1916;51.798;12.246;2023-04-25T03:30:53;8.40;;;5.63;;
3801;SDS011;1916;51.798;12.246;2023-04-25T03:32:56;10.03;;;5.30;;
3801;SDS011;1916;51.798;12.246;2023-04-25T03:34:58;8.87;;;5.20;;
3801;SDS011;1916;51.798;12.246;2023-04-25T03:37:01;7.60;;;5.27;;
3801;SDS011;1916;51.798;12.246;2023-04-25T03:39:07;9.57;;;5.50;;
3801;SDS011;1916;51.798;12.246;2023-04-25T03:41:11;12.70;;;5.90;;
3801;SDS011;1916;51.798;12.246;2023-04-25T03:43:17;8.20;;;5.20;;
3801;SDS011;1916;51.798;12.246;2023-04-25T03:45:25;8.53;;;5.80;;
3801;SDS011;1916;51.798;12.246;2023-04-25T03:47:27;8.97;;;5.70;;
3801;SDS011;1916;51.798;12.246;2023-04-25T03:49:29;11.27;;;6.73;;
3801;SDS011;1916;51.798;12.246;2023-04-25T03:51:36;6.80;;;5.67;;
3801;SDS011;1916;51.798;12.246;2023-04-25T03:53:38;11.80;;;5.23;;
3801;SDS011;1916;51.798;12.246;2023-04-25T03:55:49;14.43;;;5.90;;
3801;SDS011;1916;51.798;12.246;2023-04-25T03:57:51;15.30;;;5.90;;
3801;SDS011;1916;51.798;12.246;2023-04-25T03:59:53;6.00;;;4.97;;
3801;SDS011;1916;51.798;12.246;2023-04-25T04:01:56;12.80;;;5.97;;
3801;SDS011;1916;51.798;12.246;2023-04-25T04:03:59;10.50;;;6.00;;
3801;SDS011;1916;51.798;12.246;2023-04-25T04:06:03;13.13;;;6.27;;
3801;SDS011;1916;51.798;12.246;2023-04-25T04:08:10;8.73;;;6.33;;
3801;SDS011;1916;51.798;12.246;2023-04-25T04:10:13;10.07;;;5.50;;
3801;SDS011;1916;51.798;12.246;2023-04-25T04:12:15;9.00;;;5.70;;
3801;SDS011;1916;51.798;12.246;2023-04-25T04:14:18;12.77;;;5.83;;
3801;SDS011;1916;51.798;12.246;2023-04-25T04:16:21;12.53;;;6.17;;
3801;SDS011;1916;51.798;12.246;2023-04-25T04:18:23;12.03;;;6.27;;
3801;SDS011;1916;51.798;12.246;2023-04-25T04:20:25;8.70;;;6.80;;
3801;SDS011;1916;51.798;12.246;2023-04-25T04:22:27;9.63;;;6.20;;
3801;SDS011;1916;51.798;12.246;2023-04-25T04:24:33;9.03;;;5.97;;
3801;SDS011;1916;51.798;12.246;2023-04-25T04:26:38;11.63;;;6.23;;
3801;SDS011;1916;51.798;12.246;2023-04-25T04:28:59;10.03;;;5.77;;
3801;SDS011;1916;51.798;12.246;2023-04-25T04:31:13;13.50;;;7.10;;
3801;SDS011;1916;51.798;12.246;2023-04-25T04:33:18;13.07;;;6.47;;
3801;SDS011;1916;51.798;12.246;2023-04-25T04:35:24;9.73;;;6.93;;
3801;SDS011;1916;51.798;12.246;2023-04-25T04:37:26;8.30;;;6.03;;
3801;SDS011;1916;51.798;12.246;2023-04-25T04:39:28;18.77;;;7.63;;
3801;SDS011;1916;51.798;12.246;2023-04-25T04:41:42;11.60;;;7.00;;
3801;SDS011;1916;51.798;12.246;2023-04-25T04:44:03;18.70;;;7.27;;
3801;SDS011;1916;51.798;12.246;2023-04-25T04:46:17;8.50;;;5.50;;
3801;SDS011;1916;51.798;12.246;2023-04-25T04:48:46;7.87;;;5.27;;
3801;SDS011;1916;51.798;12.246;2023-04-25T04:51:06;12.43;;;5.60;;
3801;SDS011;1916;51.798;12.246;2023-04-25T04:53:27;10.60;;;6.30;;
3801;SDS011;1916;51.798;12.246;2023-04-25T04:55:47;12.50;;;6.43;;
3801;SDS011;1916;51.798;12.246;2023-04-25T04:58:03;12.10;;;5.47;;
3801;SDS011;1916;51.798;12.246;2023-04-25T05:00:32;10.60;;;6.30;;
3801;SDS011;1916;51.798;12.246;2023-04-25T05:03:04;12.37;;;5.83;;
3801;SDS011;1916;51.798;12.246;2023-04-25T05:05:45;12.17;;;6.33;;
3801;SDS011;1916;51.798;12.246;2023-04-25T05:08:13;9.10;;;5.87;;
3801;SDS011;1916;51.798;12.246;2023-04-25T05:10:39;10.73;;;5.90;;
3801;SDS011;1916;51.798;12.246;2023-04-25T05:13:10;11.43;;;5.63;;
3801;SDS011;1916;51.798;12.246;2023-04-25T05:15:38;10.33;;;5.47;;
3801;SDS011;1916;51.798;12.246;2023-04-25T05:18:06;11.00;;;6.50;;
3801;SDS011;1916;51.798;12.246;2023-04-25T05:20:44;8.00;;;5.10;;
3801;SDS011;1916;51.798;12.246;2023-04-25T05:22:46;7.90;;;5.40;;
3801;SDS011;1916;51.798;12.246;2023-04-25T05:25:07;15.80;;;7.30;;
3801;SDS011;1916;51.798;12.246;2023-04-25T05:27:33;9.67;;;6.00;;
3801;SDS011;1916;51.798;12.246;2023-04-25T05:29:36;10.73;;;6.70;;
3801;SDS011;1916;51.798;12.246;2023-04-25T05:32:07;8.33;;;6.43;;
3801;SDS011;1916;51.798;12.246;2023-04-25T05:34:10;15.50;;;5.90;;
3801;SDS011;1916;51.798;12.246;2023-04-25T05:36:33;13.87;;;5.30;;
3801;SDS011;1916;51.798;12.246;2023-04-25T05:38:35;12.53;;;6.10;;
3801;SDS011;1916;51.798;12.246;2023-04-25T05:40:55;10.00;;;5.83;;
3801;SDS011;1916;51.798;12.246;2023-04-25T05:43:15;9.40;;;5.30;;
3801;SDS011;1916;51.798;12.246;2023-04-25T05:45:24;14.67;;;5.93;;
3801;SDS011;1916;51.798;12.246;2023-04-25T05:47:38;9.80;;;6.00;;
3801;SDS011;1916;51.798;12.246;2023-04-25T05:49:46;15.33;;;5.67;;
3801;SDS011;1916;51.798;12.246;2023-04-25T05:52:02;8.70;;;6.20;;
3801;SDS011;1916;51.798;12.246;2023-04-25T05:54:21;11.67;;;5.50;;
3801;SDS011;1916;51.798;12.246;2023-04-25T05:56:23;11.43;;;6.00;;
3801;SDS011;1916;51.798;12.246;2023-04-25T05:58:27;12.10;;;6.00;;
3801;SDS011;1916;51.798;12.246;2023-04-25T06:00:31;7.87;;;5.60;;
3801;SDS011;1916;51.798;12.246;2023-04-25T06:02:33;11.50;;;6.20;;
3801;SDS011;1916;51.798;12.246;2023-04-25T06:04:35;10.70;;;5.70;;
3801;SDS011;1916;51.798;12.246;2023-04-25T06:06:38;12.00;;;6.23;;
3801;SDS011;1916;51.798;12.246;2023-04-25T06:08:40;9.60;;;5.70;;
3801;SDS011;1916;51.798;12.246;2023-04-25T06:10:45;7.17;;;5.40;;
3801;SDS011;1916;51.798;12.246;2023-04-25T06:12:48;11.77;;;6.17;;
3801;SDS011;1916;51.798;12.246;2023-04-25T06:14:51;14.50;;;5.87;;
3801;SDS011;1916;51.798;12.246;2023-04-25T06:16:54;8.30;;;4.93;;
3801;SDS011;1916;51.798;12.246;2023-04-25T06:18:56;9.60;;;5.10;;
3801;SDS011;1916;51.798;12.246;2023-04-25T06:20:58;13.87;;;6.27;;
3801;SDS011;1916;51.798;12.246;2023-04-25T06:23:00;8.90;;;6.10;;
3801;SDS011;1916;51.798;12.246;2023-04-25T06:25:14;6.60;;;5.10;;
3801;SDS011;1916;51.798;12.246;2023-04-25T06:27:17;15.67;;;6.10;;
3801;SDS011;1916;51.798;12.246;2023-04-25T06:29:19;6.80;;;5.83;;
3801;SDS011;1916;51.798;12.246;2023-04-25T06:31:21;11.10;;;6.03;;
3801;SDS011;1916;51.798;12.246;2023-04-25T06:33:25;11.37;;;7.33;;
3801;SDS011;1916;51.798;12.246;2023-04-25T06:35:29;15.30;;;6.30;;
3801;SDS011;1916;51.798;12.246;2023-04-25T06:37:31;10.90;;;7.37;;
3801;SDS011;1916;51.798;12.246;2023-04-25T06:39:33;16.70;;;8.03;;
3801;SDS011;1916;51.798;12.246;2023-04-25T06:41:39;11.57;;;6.10;;
3801;SDS011;1916;51.798;12.246;2023-04-25T06:43:43;10.73;;;6.67;;
3801;SDS011;1916;51.798;12.246;2023-04-25T06:46:07;9.90;;;5.90;;
3801;SDS011;1916;51.798;12.246;2023-04-25T06:48:16;9.47;;;6.70;;
3801;SDS011;1916;51.798;12.246;2023-04-25T06:50:18;10.20;;;6.83;;
3801;SDS011;1916;51.798;12.246;2023-04-25T06:52:21;11.73;;;6.70;;
3801;SDS011;1916;51.798;12.246;2023-04-25T06:54:25;25.80;;;8.30;;
3801;SDS011;1916;51.798;12.246;2023-04-25T06:56:35;12.23;;;7.00;;
3801;SDS011;1916;51.798;12.246;2023-04-25T06:58:42;9.33;;;6.50;;
3801;SDS011;1916;51.798;12.246;2023-04-25T07:00:54;7.43;;;6.23;;
3801;SDS011;1916;51.798;12.246;2023-04-25T07:02:59;9.77;;;6.07;;
3801;SDS011;1916;51.798;12.246;2023-04-25T07:05:02;13.50;;;7.63;;
3801;SDS011;1916;51.798;12.246;2023-04-25T07:07:05;8.17;;;6.33;;
3801;SDS011;1916;51.798;12.246;2023-04-25T07:09:15;9.90;;;5.73;;
3801;SDS011;1916;51.798;12.246;2023-04-25T07:11:21;9.43;;;6.30;;
3801;SDS011;1916;51.798;12.246;2023-04-25T07:13:23;11.37;;;6.57;;
3801;SDS011;1916;51.798;12.246;2023-04-25T07:15:25;8.70;;;6.87;;
3801;SDS011;1916;51.798;12.246;2023-04-25T07:17:27;9.90;;;6.30;;
3801;SDS011;1916;51.798;12.246;2023-04-25T07:19:29;9.90;;;6.50;;
3801;SDS011;1916;51.798;12.246;2023-04-25T07:21:34;14.90;;;7.23;;
3801;SDS011;1916;51.798;12.246;2023-04-25T07:23:39;8.93;;;6.73;;
3801;SDS011;1916;51.798;12.246;2023-04-25T07:25:46;12.20;;;7.23;;
3801;SDS011;1916;51.798;12.246;2023-04-25T07:27:52;13.93;;;6.07;;
3801;SDS011;1916;51.798;12.246;2023-04-25T07:29:55;11.30;;;5.10;;
3801;SDS011;1916;51.798;12.246;2023-04-25T07:31:58;9.30;;;4.23;;
3801;SDS011;1916;51.798;12.246;2023-04-25T07:34:00;10.90;;;5.33;;
3801;SDS011;1916;51.798;12.246;2023-04-25T07:36:03;19.57;;;4.70;;
3801;SDS011;1916;51.798;12.246;2023-04-25T07:38:05;17.40;;;5.23;;
3801;SDS011;1916;51.798;12.246;2023-04-25T07:40:08;13.20;;;4.40;;
3801;SDS011;1916;51.798;12.246;2023-04-25T07:42:16;15.57;;;4.53;;
3801;SDS011;1916;51.798;12.246;2023-04-25T07:44:19;19.43;;;4.87;;
3801;SDS011;1916;51.798;12.246;2023-04-25T07:46:21;12.53;;;4.10;;
3801;SDS011;1916;51.798;12.246;2023-04-25T07:48:23;18.27;;;5.53;;
3801;SDS011;1916;51.798;12.246;2023-04-25T07:50:26;8.23;;;4.20;;
3801;SDS011;1916;51.798;12.246;2023-04-25T07:52:29;15.90;;;4.53;;
3801;SDS011;1916;51.798;12.246;2023-04-25T07:54:40;11.00;;;3.87;;
3801;SDS011;1916;51.798;12.246;2023-04-25T07:56:49;15.10;;;4.10;;
3801;SDS011;1916;51.798;12.246;2023-04-25T07:58:57;11.50;;;3.50;;
3801;SDS011;1916;51.798;12.246;2023-04-25T08:00:59;15.90;;;4.50;;
3801;SDS011;1916;51.798;12.246;2023-04-25T08:03:23;17.50;;;4.93;;
3801;SDS011;1916;51.798;12.246;2023-04-25T08:05:25;10.53;;;3.80;;
3801;SDS011;1916;51.798;12.246;2023-04-25T08:07:35;14.07;;;4.33;;
3801;SDS011;1916;51.798;12.246;2023-04-25T08:09:39;12.93;;;4.13;;
3801;SDS011;1916;51.798;12.246;2023-04-25T08:11:47;14.00;;;3.97;;
3801;SDS011;1916;51.798;12.246;2023-04-25T08:13:51;10.47;;;3.97;;
3801;SDS011;1916;51.798;12.246;2023-04-25T08:15:53;7.77;;;3.70;;
3801;SDS011;1916;51.798;12.246;2023-04-25T08:17:56;21.70;;;5.20;;
3801;SDS011;1916;51.798;12.246;2023-04-25T08:19:58;8.87;;;3.80;;
3801;SDS011;1916;51.798;12.246;2023-04-25T08:22:04;17.57;;;4.47;;
3801;SDS011;1916;51.798;12.246;2023-04-25T08:24:17;14.80;;;4.40;;
3801;SDS011;1916;51.798;12.246;2023-04-25T08:26:19;17.20;;;5.30;;
3801;SDS011;1916;51.798;12.246;2023-04-25T08:28:23;16.70;;;4.80;;
3801;SDS011;1916;51.798;12.246;2023-04-25T08:30:26;13.63;;;4.47;;
3801;SDS011;1916;51.798;12.246;2023-04-25T08:32:28;12.17;;;4.50;;
3801;SDS011;1916;51.798;12.246;2023-04-25T08:34:59;14.37;;;4.90;;
3801;SDS011;1916;51.798;12.246;2023-04-25T08:37:02;23.00;;;5.33;;
3801;SDS011;1916;51.798;12.246;2023-04-25T08:39:14;19.07;;;5.17;;
3801;SDS011;1916;51.798;12.246;2023-04-25T08:41:30;17.10;;;4.70;;
3801;SDS011;1916;51.798;12.246;2023-04-25T08:43:33;15.60;;;4.23;;
3801;SDS011;1916;51.798;12.246;2023-04-25T08:45:38;15.70;;;4.80;;
3801;SDS011;1916;51.798;12.246;2023-04-25T08:47:43;12.70;;;5.20;;
3801;SDS011;1916;51.798;12.246;2023-04-25T08:49:48;17.60;;;5.30;;
3801;SDS011;1916;51.798;12.246;2023-04-25T08:51:52;14.90;;;4.53;;
3801;SDS011;1916;51.798;12.246;2023-04-25T08:53:57;12.80;;;4.33;;
3801;SDS011;1916;51.798;12.246;2023-04-25T08:56:31;19.70;;;6.03;;
3801;SDS011;1916;51.798;12.246;2023-04-25T08:58:37;9.63;;;4.70;;
3801;SDS011;1916;51.798;12.246;2023-04-25T09:00:40;15.50;;;4.63;;
3801;SDS011;1916;51.798;12.246;2023-04-25T09:02:42;19.40;;;4.63;;
3801;SDS011;1916;51.798;12.246;2023-04-25T09:04:46;23.93;;;5.20;;
3801;SDS011;1916;51.798;12.246;2023-04-25T09:06:48;11.40;;;5.43;;
3801;SDS011;1916;51.798;12.246;2023-04-25T09:08:50;12.17;;;3.70;;
3801;SDS011;1916;51.798;12.246;2023-04-25T09:10:52;12.30;;;4.40;;
3801;SDS011;1916;51.798;12.246;2023-04-25T09:13:04;14.00;;;4.40;;
3801;SDS011;1916;51.798;12.246;2023-04-25T09:15:13;20.27;;;5.00;;
3801;SDS011;1916;51.798;12.246;2023-04-25T09:17:57;15.37;;;4.80;;
3801;SDS011;1916;51.798;12.246;2023-04-25T09:20:08;12.47;;;4.70;;
3801;SDS011;1916;51.798;12.246;2023-04-25T09:22:12;8.13;;;4.20;;
3801;SDS011;1916;51.798;12.246;2023-04-25T09:24:14;10.03;;;3.80;;
3801;SDS011;1916;51.798;12.246;2023-04-25T09:26:17;12.07;;;3.90;;
3801;SDS011;1916;51.798;12.246;2023-04-25T09:28:25;14.40;;;4.10;;
3801;SDS011;1916;51.798;12.246;2023-04-25T09:30:33;18.33;;;4.50;;
3801;SDS011;1916;51.798;12.246;2023-04-25T09:32:43;19.53;;;4.73;;
3801;SDS011;1916;51.798;12.246;2023-04-25T09:34:47;7.63;;;3.20;;
3801;SDS011;1916;51.798;12.246;2023-04-25T09:36:54;10.50;;;3.73;;
3801;SDS011;1916;51.798;12.246;2023-04-25T09:39:23;14.27;;;3.97;;
3801;SDS011;1916;51.798;12.246;2023-04-25T09:41:34;15.50;;;4.20;;
3801;SDS011;1916;51.798;12.246;2023-04-25T09:43:39;10.80;;;4.80;;
3801;SDS011;1916;51.798;12.246;2023-04-25T09:45:44;13.03;;;4.30;;
3801;SDS011;1916;51.798;12.246;2023-04-25T09:47:48;18.77;;;4.10;;
3801;SDS011;1916;51.798;12.246;2023-04-25T09:49:57;11.67;;;3.70;;
3801;SDS011;1916;51.798;12.246;2023-04-25T09:52:00;8.30;;;3.00;;
3801;SDS011;1916;51.798;12.246;2023-04-25T09:54:11;14.53;;;4.60;;
3801;SDS011;1916;51.798;12.246;2023-04-25T09:56:21;11.17;;;3.70;;
3801;SDS011;1916;51.798;12.246;2023-04-25T09:58:24;10.33;;;3.60;;
3801;SDS011;1916;51.798;12.246;2023-04-25T10:00:29;11.77;;;3.60;;
3801;SDS011;1916;51.798;12.246;2023-04-25T10:02:42;8.20;;;3.50;;
3801;SDS011;1916;51.798;12.246;2023-04-25T10:04:51;8.03;;;3.80;;
3801;SDS011;1916;51.798;12.246;2023-04-25T10:07:09;7.73;;;3.50;;
3801;SDS011;1916;51.798;12.246;2023-04-25T10:09:11;8.80;;;4.27;;
3801;SDS011;1916;51.798;12.246;2023-04-25T10:11:15;10.33;;;4.30;;
3801;SDS011;1916;51.798;12.246;2023-04-25T10:13:18;10.53;;;5.00;;
3801;SDS011;1916;51.798;12.246;2023-04-25T10:15:21;13.57;;;5.47;;
3801;SDS011;1916;51.798;12.246;2023-04-25T10:17:23;17.10;;;6.37;;
3801;SDS011;1916;51.798;12.246;2023-04-25T10:19:26;14.80;;;5.20;;
3801;SDS011;1916;51.798;12.246;2023-04-25T10:21:29;18.20;;;5.50;;
3801;SDS011;1916;51.798;12.246;2023-04-25T10:23:33;13.17;;;4.67;;
3801;SDS011;1916;51.798;12.246;2023-04-25T10:25:36;10.83;;;5.03;;
3801;SDS011;1916;51.798;12.246;2023-04-25T10:27:39;15.50;;;5.13;;
3801;SDS011;1916;51.798;12.246;2023-04-25T10:29:41;13.80;;;4.70;;
3801;SDS011;1916;51.798;12.246;2023-04-25T10:31:45;12.80;;;4.53;;
3801;SDS011;1916;51.798;12.246;2023-04-25T10:33:50;14.50;;;4.60;;
3801;SDS011;1916;51.798;12.246;2023-04-25T10:35:53;13.43;;;4.63;;
3801;SDS011;1916;51.798;12.246;2023-04-25T10:40:11;12.00;;;4.80;;
3801;SDS011;1916;51.798;12.246;2023-04-25T10:42:14;11.33;;;3.93;;
3801;SDS011;1916;51.798;12.246;2023-04-25T10:44:17;14.80;;;5.23;;
3801;SDS011;1916;51.798;12.246;2023-04-25T10:46:21;15.83;;;4.60;;
3801;SDS011;1916;51.798;12.246;2023-04-25T10:48:28;10.97;;;4.97;;
3801;SDS011;1916;51.798;12.246;2023-04-25T10:50:39;19.73;;;6.40;;
3801;SDS011;1916;51.798;12.246;2023-04-25T10:52:41;12.13;;;4.00;;
3801;SDS011;1916;51.798;12.246;2023-04-25T10:56:49;8.70;;;4.07;;
3801;SDS011;1916;51.798;12.246;2023-04-25T10:59:01;7.73;;;4.30;;
3801;SDS011;1916;51.798;12.246;2023-04-25T11:01:06;7.73;;;3.53;;
3801;SDS011;1916;51.798;12.246;2023-04-25T11:03:08;12.53;;;4.10;;
3801;SDS011;1916;51.798;12.246;2023-04-25T11:05:11;7.20;;;3.40;;
3801;SDS011;1916;51.798;12.246;2023-04-25T11:09:40;7.97;;;3.93;;
3801;SDS011;1916;51.798;12.246;2023-04-25T11:11:42;11.20;;;3.77;;
3801;SDS011;1916;51.798;12.246;2023-04-25T11:13:48;8.40;;;3.80;;
3801;SDS011;1916;51.798;12.246;2023-04-25T11:15:51;8.70;;;3.13;;
3801;SDS011;1916;51.798;12.246;2023-04-25T11:18:15;8.80;;;3.10;;
3801;SDS011;1916;51.798;12.246;2023-04-25T11:20:18;5.50;;;3.37;;
3801;SDS011;1916;51.798;12.246;2023-04-25T11:22:20;9.27;;;3.40;;
3801;SDS011;1916;51.798;12.246;2023-04-25T11:24:29;7.33;;;3.73;;
3801;SDS011;1916;51.798;12.246;2023-04-25T11:26:33;8.20;;;3.80;;
3801;SDS011;1916;51.798;12.246;2023-04-25T11:28:35;5.57;;;3.00;;
3801;SDS011;1916;51.798;12.246;2023-04-25T11:30:38;9.50;;;4.47;;
3801;SDS011;1916;51.798;12.246;2023-04-25T11:32:40;12.47;;;4.57;;
3801;SDS011;1916;51.798;12.246;2023-04-25T11:34:43;11.10;;;4.70;;
3801;SDS011;1916;51.798;12.246;2023-04-25T11:36:47;8.57;;;3.60;;
3801;SDS011;1916;51.798;12.246;2023-04-25T11:38:50;10.40;;;3.13;;
3801;SDS011;1916;51.798;12.246;2023-04-25T11:40:53;5.67;;;2.30;;
3801;SDS011;1916;51.798;12.246;2023-04-25T11:42:56;7.33;;;3.10;;
3801;SDS011;1916;51.798;12.246;2023-04-25T11:45:01;7.57;;;2.90;;
3801;SDS011;1916;51.798;12.246;2023-04-25T11:47:05;4.73;;;3.10;;
3801;SDS011;1916;51.798;12.246;2023-04-25T11:49:07;4.30;;;2.60;;
3801;SDS011;1916;51.798;12.246;2023-04-25T11:51:10;5.33;;;2.23;;
3801;SDS011;1916;51.798;12.246;2023-04-25T11:53:13;12.63;;;2.70;;
3801;SDS011;1916;51.798;12.246;2023-04-25T11:55:16;8.17;;;3.20;;
3801;SDS011;1916;51.798;12.246;2023-04-25T11:57:19;7.00;;;2.90;;
3801;SDS011;1916;51.798;12.246;2023-04-25T11:59:22;5.93;;;3.27;;
3801;SDS011;1916;51.798;12.246;2023-04-25T12:01:26;9.53;;;2.87;;
3801;SDS011;1916;51.798;12.246;2023-04-25T12:03:45;7.37;;;2.33;;
3801;SDS011;1916;51.798;12.246;2023-04-25T12:05:48;5.87;;;2.50;;
3801;SDS011;1916;51.798;12.246;2023-04-25T12:07:52;10.23;;;3.30;;
3801;SDS011;1916;51.798;12.246;2023-04-25T12:09:54;3.63;;;2.40;;
3801;SDS011;1916;51.798;12.246;2023-04-25T12:11:58;11.67;;;2.80;;
3801;SDS011;1916;51.798;12.246;2023-04-25T12:14:02;5.63;;;2.40;;
3801;SDS011;1916;51.798;12.246;2023-04-25T12:16:05;9.17;;;3.10;;
3801;SDS011;1916;51.798;12.246;2023-04-25T12:18:08;7.13;;;3.37;;
3801;SDS011;1916;51.798;12.246;2023-04-25T12:20:12;6.90;;;2.93;;
3801;SDS011;1916;51.798;12.246;2023-04-25T12:22:19;5.77;;;3.37;;
3801;SDS011;1916;51.798;12.246;2023-04-25T12:24:23;10.80;;;3.20;;
3801;SDS011;1916;51.798;12.246;2023-04-25T12:26:34;8.20;;;3.17;;
3801;SDS011;1916;51.798;12.246;2023-04-25T12:28:48;9.57;;;3.43;;
3801;SDS011;1916;51.798;12.246;2023-04-25T12:32:56;7.70;;;2.90;;
3801;SDS011;1916;51.798;12.246;2023-04-25T12:34:59;5.40;;;2.90;;
3801;SDS011;1916;51.798;12.246;2023-04-25T12:37:01;10.47;;;2.97;;
3801;SDS011;1916;51.798;12.246;2023-04-25T12:39:03;6.73;;;2.77;;
3801;SDS011;1916;51.798;12.246;2023-04-25T12:41:06;12.23;;;3.57;;
3801;SDS011;1916;51.798;12.246;2023-04-25T12:43:08;6.57;;;3.00;;
3801;SDS011;1916;51.798;12.246;2023-04-25T12:45:10;5.67;;;3.30;;
3801;SDS011;1916;51.798;12.246;2023-04-25T12:47:12;9.33;;;3.73;;
3801;SDS011;1916;51.798;12.246;2023-04-25T12:49:15;10.53;;;2.77;;
3801;SDS011;1916;51.798;12.246;2023-04-25T12:51:20;5.43;;;2.90;;
3801;SDS011;1916;51.798;12.246;2023-04-25T12:53:22;11.30;;;3.57;;
3801;SDS011;1916;51.798;12.246;2023-04-25T12:55:28;7.30;;;3.17;;